sensor_id;sensor_type;location;lat;lon;timestamp;P1;durP1;ratioP1;P2;durP2;ratioP2
50165;SDS011;36071;48.140;11.516;2024-03-22T00:03:46;22.6;;;14.6;;
50165;SDS011;36071;48.140;11.516;2024-03-22T00:08:46;20.8;;;14.6;;
50165;SDS011;36071;48.140;11.516;2024-03-22T00:13:46;22.5;;;15.0;;
50165;SDS011;36071;48.140;11.516;2024-03-22T00:18:46;22.3;;;14.8;;
50165;SDS011;36071;48.140;11.516;2024-03-22T00:23:46;23.1;;;15.4;;
50165;SDS011;36071;48.140;11.516;2024-03-22T00:28:46;26.2;;;16.3;;
50165;SDS011;36071;48.140;11.516;2024-03-22T00:33:46;22.2;;;15.3;;
50165;SDS011;36071;48.140;11.516;2024-03-22T00:38:46;24.7;;;15.4;;
50165;SDS011;36071;48.140;11.516;2024-03-22T00:43:46;23.7;;;15.5;;
50165;SDS011;36071;48.140;11.516;2024-03-22T00:48:46;24.3;;;15.5;;
50165;SDS011;36071;48.140;11.516;2024-03-22T00:53:46;27.4;;;15.9;;
50165;SDS011;36071;48.140;11.516;2024-03-22T00:58:46;23.0;;;15.5;;
50165;SDS011;36071;48.140;11.516;2024-03-22T01:03:46;30.6;;;15.9;;
50165;SDS011;36071;48.140;11.516;2024-03-22T01:08:46;23.3;;;15.9;;
50165;SDS011;36071;48.140;11.516;2024-03-22T01:13:46;28.0;;;16.6;;
50165;SDS011;36071;48.140;11.516;2024-03-22T01:18:46;24.8;;;16.2;;
50165;SDS011;36071;48.140;11.516;2024-03-22T01:23:46;26.5;;;16.7;;
50165;SDS011;36071;48.140;11.516;2024-03-22T01:28:46;25.6;;;16.2;;
50165;SDS011;36071;48.140;11.516;2024-03-22T01:33:46;24.5;;;16.1;;
50165;SDS011;36071;48.140;11.516;2024-03-22T01:38:46;25.1;;;15.9;;
50165;SDS011;36071;48.140;11.516;2024-03-22T01:43:46;26.7;;;17.2;;
50165;SDS011;36071;48.140;11.516;2024-03-22T01:48:46;27.9;;;16.0;;
50165;SDS011;36071;48.140;11.516;2024-03-22T01:53:46;24.7;;;15.5;;
50165;SDS011;36071;48.140;11.516;2024-03-22T01:58:46;24.9;;;15.8;;
50165;SDS011;36071;48.140;11.516;2024-03-22T02:03:46;26.8;;;16.7;;
50165;SDS011;36071;48.140;11.516;2024-03-22T02:08:46;25.5;;;17.2;;
50165;SDS011;36071;48.140;11.516;2024-03-22T02:13:46;25.0;;;15.5;;
50165;SDS011;36071;48.140;11.516;2024-03-22T02:18:46;27.4;;;16.7;;
50165;SDS011;36071;48.140;11.516;2024-03-22T02:23:46;27.9;;;17.1;;
50165;SDS011;36071;48.140;11.516;2024-03-22T02:28:46;26.8;;;16.6;;
50165;SDS011;36071;48.140;11.516;2024-03-22T02:33:46;26.2;;;16.5;;
50165;SDS011;36071;48.140;11.516;2024-03-22T02:38:46;29.9;;;17.9;;
50165;SDS011;36071;48.140;11.516;2024-03-22T02:43:46;26.2;;;16.9;;
50165;SDS011;36071;48.140;11.516;2024-03-22T02:48:46;27.6;;;17.4;;
50165;SDS011;36071;48.140;11.516;2024-03-22T02:53:46;29.5;;;18.1;;
50165;SDS011;36071;48.140;11.516;2024-03-22T02:58:46;30.4;;;18.4;;
50165;SDS011;36071;48.140;11.516;2024-03-22T03:03:46;26.8;;;17.6;;
50165;SDS011;36071;48.140;11.516;2024-03-22T03:08:46;27.4;;;18.7;;
50165;SDS011;36071;48.140;11.516;2024-03-22T03:13:46;28.3;;;18.0;;
50165;SDS011;36071;48.140;11.516;2024-03-22T03:18:46;28.9;;;17.8;;
50165;SDS011;36071;48.140;11.516;2024-03-22T03:23:46;29.8;;;18.4;;
50165;SDS011;36071;48.140;11.516;2024-03-22T03:28:46;33.1;;;17.9;;
50165;SDS011;36071;48.140;11.516;2024-03-22T03:33:47;28.9;;;18.0;;
50165;SDS011;36071;48.140;11.516;2024-03-22T03:38:46;29.9;;;18.2;;
50165;SDS011;36071;48.140;11.516;2024-03-22T03:43:46;27.5;;;17.8;;
50165;SDS011;36071;48.140;11.516;2024-03-22T03:48:46;28.4;;;17.8;;
50165;SDS011;36071;48.140;11.516;2024-03-22T03:53:46;28.7;;;17.8;;
50165;SDS011;36071;48.140;11.516;2024-03-22T03:58:46;27.1;;;16.7;;
50165;SDS011;36071;48.140;11.516;2024-03-22T04:03:46;26.8;;;17.2;;
50165;SDS011;36071;48.140;11.516;2024-03-22T04:08:46;27.6;;;16.9;;
50165;SDS011;36071;48.140;11.516;2024-03-22T04:13:46;27.3;;;16.4;;
50165;SDS011;36071;48.140;11.516;2024-03-22T04:18:46;27.3;;;16.2;;
50165;SDS011;36071;48.140;11.516;2024-03-22T04:23:46;28.0;;;17.3;;
50165;SDS011;36071;48.140;11.516;2024-03-22T04:28:46;29.1;;;16.7;;
50165;SDS011;36071;48.140;11.516;2024-03-22T04:33:46;27.7;;;17.4;;
50165;SDS011;36071;48.140;11.516;2024-03-22T04:38:46;31.1;;;17.9;;
50165;SDS011;36071;48.140;11.516;2024-03-22T04:43:46;26.2;;;16.8;;
50165;SDS011;36071;48.140;11.516;2024-03-22T04:48:46;29.1;;;17.7;;
50165;SDS011;36071;48.140;11.516;2024-03-22T04:53:46;30.0;;;17.2;;
50165;SDS011;36071;48.140;11.516;2024-03-22T04:58:46;26.1;;;16.7;;
50165;SDS011;36071;48.140;11.516;2024-03-22T05:03:46;25.5;;;16.5;;
50165;SDS011;36071;48.140;11.516;2024-03-22T05:08:46;30.4;;;17.8;;
50165;SDS011;36071;48.140;11.516;2024-03-22T05:13:46;26.6;;;16.9;;
50165;SDS011;36071;48.140;11.516;2024-03-22T05:18:46;28.8;;;17.1;;
50165;SDS011;36071;48.140;11.516;2024-03-22T05:23:46;24.9;;;15.9;;
50165;SDS011;36071;48.140;11.516;2024-03-22T05:28:46;26.4;;;16.4;;
50165;SDS011;36071;48.140;11.516;2024-03-22T05:33:46;27.4;;;15.9;;
50165;SDS011;36071;48.140;11.516;2024-03-22T05:38:46;22.7;;;14.8;;
50165;SDS011;36071;48.140;11.516;2024-03-22T05:43:46;25.8;;;15.0;;
50165;SDS011;36071;48.140;11.516;2024-03-22T05:48:46;24.1;;;14.9;;
50165;SDS011;36071;48.140;11.516;2024-03-22T05:53:46;20.7;;;13.4;;
50165;SDS011;36071;48.140;11.516;2024-03-22T05:58:46;23.5;;;13.8;;
50165;SDS011;36071;48.140;11.516;2024-03-22T06:03:46;20.6;;;13.2;;
50165;SDS011;36071;48.140;11.516;2024-03-22T06:08:46;23.7;;;13.8;;
50165;SDS011;36071;48.140;11.516;2024-03-22T06:13:46;19.3;;;12.8;;
50165;SDS011;36071;48.140;11.516;2024-03-22T06:18:46;20.6;;;12.5;;
50165;SDS011;36071;48.140;11.516;2024-03-22T06:23:46;21.3;;;13.5;;
50165;SDS011;36071;48.140;11.516;2024-03-22T06:28:46;18.7;;;12.6;;
50165;SDS011;36071;48.140;11.516;2024-03-22T06:33:46;21.0;;;13.0;;
50165;SDS011;36071;48.140;11.516;2024-03-22T06:38:46;22.2;;;13.4;;
50165;SDS011;36071;48.140;11.516;2024-03-22T06:43:46;22.0;;;13.1;;
50165;SDS011;36071;48.140;11.516;2024-03-22T06:48:46;20.2;;;12.6;;
50165;SDS011;36071;48.140;11.516;2024-03-22T06:53:46;17.0;;;11.4;;
50165;SDS011;36071;48.140;11.516;2024-03-22T06:58:46;17.9;;;10.9;;
50165;SDS011;36071;48.140;11.516;2024-03-22T07:03:46;17.0;;;10.5;;
50165;SDS011;36071;48.140;11.516;2024-03-22T07:08:46;17.7;;;10.8;;
50165;SDS011;36071;48.140;11.516;2024-03-22T07:13:46;13.5;;;9.5;;
50165;SDS011;36071;48.140;11.516;2024-03-22T07:18:46;18.6;;;9.9;;
50165;SDS011;36071;48.140;11.516;2024-03-22T07:23:46;17.2;;;9.4;;
50165;SDS011;36071;48.140;11.516;2024-03-22T07:28:46;13.9;;;9.1;;
50165;SDS011;36071;48.140;11.516;2024-03-22T07:33:46;13.0;;;8.3;;
50165;SDS011;36071;48.140;11.516;2024-03-22T07:38:46;12.5;;;8.0;;
50165;SDS011;36071;48.140;11.516;2024-03-22T07:43:46;11.7;;;8.4;;
50165;SDS011;36071;48.140;11.516;2024-03-22T07:53:46;13.9;;;8.5;;
50165;SDS011;36071;48.140;11.516;2024-03-22T07:58:46;14.2;;;8.7;;
50165;SDS011;36071;48.140;11.516;2024-03-22T08:03:46;11.5;;;8.2;;
50165;SDS011;36071;48.140;11.516;2024-03-22T08:08:46;13.5;;;7.3;;
50165;SDS011;36071;48.140;11.516;2024-03-22T08:13:46;10.1;;;7.1;;
50165;SDS011;36071;48.140;11.516;2024-03-22T08:18:46;10.3;;;6.9;;
50165;SDS011;36071;48.140;11.516;2024-03-22T08:23:46;10.7;;;6.6;;
50165;SDS011;36071;48.140;11.516;2024-03-22T08:28:46;10.7;;;6.0;;
50165;SDS011;36071;48.140;11.516;2024-03-22T08:33:46;11.1;;;6.5;;
50165;SDS011;36071;48.140;11.516;2024-03-22T08:38:46;9.1;;;5.8;;
50165;SDS011;36071;48.140;11.516;2024-03-22T08:43:46;8.9;;;5.4;;
50165;SDS011;36071;48.140;11.516;2024-03-22T08:48:46;10.0;;;5.6;;
50165;SDS011;36071;48.140;11.516;2024-03-22T08:53:46;11.0;;;6.3;;
50165;SDS011;36071;48.140;11.516;2024-03-22T08:58:46;9.9;;;5.9;;
50165;SDS011;36071;48.140;11.516;2024-03-22T09:03:46;9.2;;;5.6;;
50165;SDS011;36071;48.140;11.516;2024-03-22T09:08:46;8.5;;;5.9;;
50165;SDS011;36071;48.140;11.516;2024-03-22T09:13:46;7.6;;;5.1;;
50165;SDS011;36071;48.140;11.516;2024-03-22T09:18:46;8.1;;;4.7;;
50165;SDS011;36071;48.140;11.516;2024-03-22T09:23:46;9.4;;;4.8;;
50165;SDS011;36071;48.140;11.516;2024-03-22T09:28:46;8.2;;;4.5;;
50165;SDS011;36071;48.140;11.516;2024-03-22T09:33:46;8.1;;;4.9;;
50165;SDS011;36071;48.140;11.516;2024-03-22T09:38:46;10.0;;;4.1;;
50165;SDS011;36071;48.140;11.516;2024-03-22T09:43:46;8.2;;;4.4;;
50165;SDS011;36071;48.140;11.516;2024-03-22T09:48:46;10.6;;;4.9;;
50165;SDS011;36071;48.140;11.516;2024-03-22T09:53:46;7.5;;;4.2;;
50165;SDS011;36071;48.140;11.516;2024-03-22T09:58:46;7.5;;;5.0;;
50165;SDS011;36071;48.140;11.516;2024-03-22T10:03:46;6.8;;;4.8;;
50165;SDS011;36071;48.140;11.516;2024-03-22T10:08:46;8.6;;;4.7;;
50165;SDS011;36071;48.140;11.516;2024-03-22T10:13:46;7.6;;;4.3;;
50165;SDS011;36071;48.140;11.516;2024-03-22T10:18:46;8.2;;;4.4;;
50165;SDS011;36071;48.140;11.516;2024-03-22T10:23:46;6.6;;;4.0;;
50165;SDS011;36071;48.140;11.516;2024-03-22T10:28:46;6.2;;;4.0;;
50165;SDS011;36071;48.140;11.516;2024-03-22T10:33:46;8.4;;;4.1;;
50165;SDS011;36071;48.140;11.516;2024-03-22T10:38:46;8.0;;;4.6;;
50165;SDS011;36071;48.140;11.516;2024-03-22T10:43:46;9.0;;;4.8;;
50165;SDS011;36071;48.140;11.516;2024-03-22T10:48:46;6.8;;;4.2;;
50165;SDS011;36071;48.140;11.516;2024-03-22T10:53:48;7.1;;;3.7;;
50165;SDS011;36071;48.140;11.516;2024-03-22T10:58:46;7.2;;;4.0;;
50165;SDS011;36071;48.140;11.516;2024-03-22T11:03:46;6.2;;;3.8;;
50165;SDS011;36071;48.140;11.516;2024-03-22T11:08:49;7.5;;;4.0;;
50165;SDS011;36071;48.140;11.516;2024-03-22T11:13:46;5.5;;;3.7;;
50165;SDS011;36071;48.140;11.516;2024-03-22T11:18:46;8.0;;;4.2;;
50165;SDS011;36071;48.140;11.516;2024-03-22T11:23:46;8.8;;;4.2;;
50165;SDS011;36071;48.140;11.516;2024-03-22T11:28:46;7.7;;;4.0;;
50165;SDS011;36071;48.140;11.516;2024-03-22T11:33:46;6.5;;;3.9;;
50165;SDS011;36071;48.140;11.516;2024-03-22T11:38:46;7.2;;;3.5;;
50165;SDS011;36071;48.140;11.516;2024-03-22T11:43:46;8.1;;;3.9;;
50165;SDS011;36071;48.140;11.516;2024-03-22T11:48:50;8.7;;;4.8;;
50165;SDS011;36071;48.140;11.516;2024-03-22T11:53:49;7.0;;;4.3;;
50165;SDS011;36071;48.140;11.516;2024-03-22T11:58:46;6.6;;;4.1;;
50165;SDS011;36071;48.140;11.516;2024-03-22T12:03:46;6.7;;;4.0;;
50165;SDS011;36071;48.140;11.516;2024-03-22T12:08:46;7.0;;;4.2;;
50165;SDS011;36071;48.140;11.516;2024-03-22T12:13:46;7.4;;;4.2;;
50165;SDS011;36071;48.140;11.516;2024-03-22T12:18:46;9.2;;;4.1;;
50165;SDS011;36071;48.140;11.516;2024-03-22T12:23:46;7.4;;;4.7;;
50165;SDS011;36071;48.140;11.516;2024-03-22T12:28:46;6.4;;;3.7;;
50165;SDS011;36071;48.140;11.516;2024-03-22T12:33:46;8.1;;;4.2;;
50165;SDS011;36071;48.140;11.516;2024-03-22T12:38:46;5.5;;;4.2;;
50165;SDS011;36071;48.140;11.516;2024-03-22T12:43:46;5.7;;;4.0;;
50165;SDS011;36071;48.140;11.516;2024-03-22T12:48:46;6.9;;;4.2;;
50165;SDS011;36071;48.140;11.516;2024-03-22T12:53:46;7.6;;;4.4;;
50165;SDS011;36071;48.140;11.516;2024-03-22T12:58:46;9.9;;;4.0;;
50165;SDS011;36071;48.140;11.516;2024-03-22T13:03:46;6.0;;;3.5;;
50165;SDS011;36071;48.140;11.516;2024-03-22T13:08:46;7.1;;;3.7;;
50165;SDS011;36071;48.140;11.516;2024-03-22T13:13:46;6.2;;;3.7;;
50165;SDS011;36071;48.140;11.516;2024-03-22T13:18:46;6.8;;;3.7;;
50165;SDS011;36071;48.140;11.516;2024-03-22T13:23:46;7.2;;;3.6;;
50165;SDS011;36071;48.140;11.516;2024-03-22T13:28:46;7.3;;;3.4;;
50165;SDS011;36071;48.140;11.516;2024-03-22T13:33:46;3.8;;;2.7;;
50165;SDS011;36071;48.140;11.516;2024-03-22T13:38:46;5.6;;;2.9;;
50165;SDS011;36071;48.140;11.516;2024-03-22T13:43:46;6.6;;;3.7;;
50165;SDS011;36071;48.140;11.516;2024-03-22T13:48:46;5.3;;;2.7;;
50165;SDS011;36071;48.140;11.516;2024-03-22T13:53:46;4.1;;;2.9;;
50165;SDS011;36071;48.140;11.516;2024-03-22T13:58:46;5.5;;;2.7;;
50165;SDS011;36071;48.140;11.516;2024-03-22T14:03:46;4.6;;;2.6;;
50165;SDS011;36071;48.140;11.516;2024-03-22T14:08:46;3.8;;;2.5;;
50165;SDS011;36071;48.140;11.516;2024-03-22T14:13:46;6.3;;;2.5;;
50165;SDS011;36071;48.140;11.516;2024-03-22T14:18:46;5.2;;;2.5;;
50165;SDS011;36071;48.140;11.516;2024-03-22T14:23:46;4.4;;;2.1;;
50165;SDS011;36071;48.140;11.516;2024-03-22T14:28:46;6.5;;;2.5;;
50165;SDS011;36071;48.140;11.516;2024-03-22T14:33:46;4.1;;;1.9;;
50165;SDS011;36071;48.140;11.516;2024-03-22T14:38:46;3.2;;;2.0;;
50165;SDS011;36071;48.140;11.516;2024-03-22T14:43:46;4.8;;;1.8;;
50165;SDS011;36071;48.140;11.516;2024-03-22T14:48:46;3.6;;;2.1;;
50165;SDS011;36071;48.140;11.516;2024-03-22T14:53:46;4.1;;;1.3;;
50165;SDS011;36071;48.140;11.516;2024-03-22T14:58:46;3.0;;;1.2;;
50165;SDS011;36071;48.140;11.516;2024-03-22T15:03:46;3.7;;;1.3;;
50165;SDS011;36071;48.140;11.516;2024-03-22T15:08:46;6.0;;;1.3;;
50165;SDS011;36071;48.140;11.516;2024-03-22T15:13:46;2.1;;;1.3;;
50165;SDS011;36071;48.140;11.516;2024-03-22T15:18:46;1.8;;;1.2;;
50165;SDS011;36071;48.140;11.516;2024-03-22T15:23:46;3.2;;;1.7;;
50165;SDS011;36071;48.140;11.516;2024-03-22T15:33:46;7.9;;;4.2;;
50165;SDS011;36071;48.140;11.516;2024-03-22T15:38:46;2.8;;;1.3;;
50165;SDS011;36071;48.140;11.516;2024-03-22T15:43:46;2.9;;;1.4;;
50165;SDS011;36071;48.140;11.516;2024-03-22T15:48:46;3.5;;;1.2;;
50165;SDS011;36071;48.140;11.516;2024-03-22T15:53:46;2.8;;;1.4;;
50165;SDS011;36071;48.140;11.516;2024-03-22T15:58:46;2.1;;;1.1;;
50165;SDS011;36071;48.140;11.516;2024-03-22T16:03:46;5.1;;;1.3;;
50165;SDS011;36071;48.140;11.516;2024-03-22T16:08:46;1.8;;;1.0;;
50165;SDS011;36071;48.140;11.516;2024-03-22T16:13:46;3.6;;;1.5;;
50165;SDS011;36071;48.140;11.516;2024-03-22T16:18:46;2.4;;;1.4;;
50165;SDS011;36071;48.140;11.516;2024-03-22T16:23:46;3.5;;;1.2;;
50165;SDS011;36071;48.140;11.516;2024-03-22T16:28:46;2.3;;;1.4;;
50165;SDS011;36071;48.140;11.516;2024-03-22T16:33:46;2.4;;;1.4;;
50165;SDS011;36071;48.140;11.516;2024-03-22T16:38:46;2.5;;;1.1;;
50165;SDS011;36071;48.140;11.516;2024-03-22T16:43:46;2.4;;;1.3;;
50165;SDS011;36071;48.140;11.516;2024-03-22T16:48:46;3.7;;;1.5;;
50165;SDS011;36071;48.140;11.516;2024-03-22T16:53:46;3.5;;;1.2;;
50165;SDS011;36071;48.140;11.516;2024-03-22T16:58:46;2.2;;;1.2;;
50165;SDS011;36071;48.140;11.516;2024-03-22T17:03:46;2.8;;;1.3;;
50165;SDS011;36071;48.140;11.516;2024-03-22T17:08:46;3.8;;;1.5;;
50165;SDS011;36071;48.140;11.516;2024-03-22T17:13:46;3.5;;;1.4;;
50165;SDS011;36071;48.140;11.516;2024-03-22T17:18:46;4.0;;;1.6;;
50165;SDS011;36071;48.140;11.516;2024-03-22T17:23:46;2.9;;;1.5;;
50165;SDS011;36071;48.140;11.516;2024-03-22T17:28:46;2.8;;;1.6;;
50165;SDS011;36071;48.140;11.516;2024-03-22T17:33:46;4.8;;;2.0;;
50165;SDS011;36071;48.140;11.516;2024-03-22T17:38:46;4.2;;;2.0;;
50165;SDS011;36071;48.140;11.516;2024-03-22T17:43:46;3.9;;;2.0;;
50165;SDS011;36071;48.140;11.516;2024-03-22T17:48:46;3.3;;;1.9;;
50165;SDS011;36071;48.140;11.516;2024-03-22T17:53:46;3.1;;;1.9;;
50165;SDS011;36071;48.140;11.516;2024-03-22T17:58:46;5.0;;;2.1;;
50165;SDS011;36071;48.140;11.516;2024-03-22T18:03:46;5.1;;;2.4;;
50165;SDS011;36071;48.140;11.516;2024-03-22T18:08:46;4.4;;;2.1;;
50165;SDS011;36071;48.140;11.516;2024-03-22T18:13:46;3.5;;;2.1;;
50165;SDS011;36071;48.140;11.516;2024-03-22T18:18:46;5.3;;;3.0;;
50165;SDS011;36071;48.140;11.516;2024-03-22T18:23:46;7.4;;;3.6;;
50165;SDS011;36071;48.140;11.516;2024-03-22T18:28:46;14.5;;;5.5;;
50165;SDS011;36071;48.140;11.516;2024-03-22T18:33:46;10.1;;;4.7;;
50165;SDS011;36071;48.140;11.516;2024-03-22T18:38:46;8.5;;;3.6;;
50165;SDS011;36071;48.140;11.516;2024-03-22T18:43:46;9.5;;;3.8;;
50165;SDS011;36071;48.140;11.516;2024-03-22T18:48:46;9.1;;;4.1;;
50165;SDS011;36071;48.140;11.516;2024-03-22T18:54:17;5.4;;;3.3;;
50165;SDS011;36071;48.140;11.516;2024-03-22T18:58:46;6.6;;;3.0;;
50165;SDS011;36071;48.140;11.516;2024-03-22T19:03:47;5.4;;;3.3;;
50165;SDS011;36071;48.140;11.516;2024-03-22T19:08:46;9.7;;;3.9;;
50165;SDS011;36071;48.140;11.516;2024-03-22T19:13:46;7.5;;;3.6;;
50165;SDS011;36071;48.140;11.516;2024-03-22T19:18:47;7.3;;;3.5;;
50165;SDS011;36071;48.140;11.516;2024-03-22T19:23:46;8.9;;;4.1;;
50165;SDS011;36071;48.140;11.516;2024-03-22T19:28:46;5.6;;;3.5;;
50165;SDS011;36071;48.140;11.516;2024-03-22T19:33:46;6.1;;;3.5;;
50165;SDS011;36071;48.140;11.516;2024-03-22T19:38:46;6.6;;;3.2;;
50165;SDS011;36071;48.140;11.516;2024-03-22T19:43:46;7.0;;;3.6;;
50165;SDS011;36071;48.140;11.516;2024-03-22T19:48:46;6.3;;;3.1;;
50165;SDS011;36071;48.140;11.516;2024-03-22T19:53:46;6.0;;;3.3;;
50165;SDS011;36071;48.140;11.516;2024-03-22T19:58:46;9.5;;;3.7;;
50165;SDS011;36071;48.140;11.516;2024-03-22T20:03:46;7.5;;;3.2;;
50165;SDS011;36071;48.140;11.516;2024-03-22T20:08:46;9.8;;;4.2;;
50165;SDS011;36071;48.140;11.516;2024-03-22T20:13:46;7.4;;;3.5;;
50165;SDS011;36071;48.140;11.516;2024-03-22T20:18:46;6.4;;;3.7;;
50165;SDS011;36071;48.140;11.516;2024-03-22T20:23:46;5.4;;;3.5;;
50165;SDS011;36071;48.140;11.516;2024-03-22T20:28:46;5.6;;;3.0;;
50165;SDS011;36071;48.140;11.516;2024-03-22T20:33:46;6.2;;;3.6;;
